Monitor, WA

3:06 PM PDT on October 31, 2014 (GMT -0700)
East Cashmere | Change Station
CLOSE
Current Station
Personal Weather Station
Location: CASHMERE, WA
Elevation: 922 ft
Nearby Weather Stations

Elev 922 ft 47.52 °N, 120.44 °W | Updated 7 seconds ago

Mostly Cloudy
Mostly Cloudy
54.7 °F
Feels Like 54.7 °F
N
0.7
Wind Variable Wind from NE
Gusts 0.7 mph

Today
High -- | Low -- °F
--% Chance of Precip.
Yesterday
High -- | Low -- °F
Precip. -- in
7:44 AM 5:45 PM
First Quarter, 59% visible
Pressure 29.73 in
Visibility 7.0 miles
Clouds Scattered Clouds 500 ft
Mostly Cloudy 11000 ft
Dew Point 53 °F
Humidity 95%
Rainfall 0.33 in
Snow Depth Not available.
UV 1 out of 12
Pollen .30 out of 12
Air Quality Not available.
Flu Activity Not available.
METAR KEAT 312155Z AUTO 00000KT 7SM SCT005 BKN110 12/09 A2973 RMK AO2 RAE07 SLP066 P0000 T01220094

More Conditions Fewer Conditions

Pressure 29.73 in
Visibility 7.0 miles
Clouds Scattered Clouds 500 ft
Mostly Cloudy 11000 ft
Dew Point 53 °F
Humidity 95%
Rainfall 0.33 in
Snow Depth Not available.
UV 1 out of 12
Pollen .30 out of 12
Air Quality Not available.
Flu Activity Not available.
METAR KEAT 312155Z AUTO 00000KT 7SM SCT005 BKN110 12/09 A2973 RMK AO2 RAE07 SLP066 P0000 T01220094

More Conditions Fewer Conditions

10-Day Weather Forecast

Almanac

Astronomy

Oct. 31, 2014 Rise Set
Actual Time
Civil Twilight
Nautical Twilight
Astronomical Twilight
Moon
Length of Visible Light
Length of Day
Tomorrow will be .
, % of the Moon is Illuminated

Today's Extremes

State Highs State Lows

Community

WunderPhotos

Upload Photos

1,766,751 photos uploaded!

WunderBlogs® & News

Nearby

Air Quality

  Air Quality AQ Index Pollutant
Not available.

Snow Depth

Station Depth Elevation

Earthquake Activity

City Distance Mag. Time & Date
Minimum magnitude displayed is 2.5.

Coastal Water Temperatures

Place Temperature

Nearby Weather Stations